Home > Products > Valid Products > TAF

000
FTUS41 KPBZ 230500
TAFDUJ
TAF
KDUJ 230528Z 2306/2406 29010G18KT P6SM VCSH OVC015
      TEMPO 2308/2312 OVC008
     FM231200 30010G18KT P6SM BKN015
     FM231500 30010G18KT P6SM BKN025
     FM231800 31014G22KT P6SM SCT040
     FM240000 31007KT P6SM SKC=



000
FTUS41 KPBZ 230500
TAFAGC
TAF
KAGC 230528Z 2306/2406 32012G18KT P6SM OVC025
      TEMPO 2309/2313 OVC015
     FM231500 32014G22KT P6SM BKN040
     FM232000 31014G22KT P6SM SCT040
     FM240000 32008KT P6SM SKC=



000
FTUS41 KPBZ 230500
TAFBVI
TAF
KBVI 230528Z 2306/2406 32012G18KT P6SM OVC015
     FM231600 32014G22KT P6SM BKN040
     FM232100 31014G22KT P6SM SCT040
     FM240000 32008KT P6SM SKC
      AMD NOT SKED=



000
FTUS41 KPBZ 230500
TAFZZV
TAF
KZZV 230528Z 2306/2406 32010KT P6SM BKN035
     FM231600 32012KT P6SM SKC
     FM240000 34003KT P6SM SKC=



000
FTUS41 KPBZ 230500
TAFPIT
TAF
KPIT 230528Z 2306/2412 32012G20KT P6SM OVC025
      TEMPO 2308/2312 OVC015
     FM231500 32014G22KT P6SM BKN040
     FM232000 31014G22KT P6SM SCT040
     FM240000 32008KT P6SM SKC=



000
FTUS41 KPBZ 230500
TAFMGW
TAF
KMGW 230528Z 2306/2406 31006KT P6SM OVC040
     FM231000 30006KT P6SM BKN025
     FM231500 32010G18KT P6SM SCT040
     FM231900 32010G18KT P6SM SKC
     FM240100 33004KT P6SM SKC=



000
FTUS41 KPBZ 230500
TAFLBE
TAF
KLBE 230528Z 2306/2406 31012KT P6SM OVC025
     FM231500 31014G22KT P6SM BKN040
     FM232000 30014G22KT P6SM SCT040
     FM240000 31008KT P6SM SKC
      AMD NOT SKED=



000
FTUS41 KPBZ 230500
TAFHLG
TAF
KHLG 230528Z 2306/2406 32010G16KT P6SM OVC025
     FM231500 32014G22KT P6SM BKN040
     FM232000 31014G22KT P6SM SCT040
     FM240000 32008KT P6SM SKC=



000
FTUS41 KPBZ 230400 AAB
TAFDUJ
TAF AMD
KDUJ 230402Z 2304/2324 30010G18KT P6SM VCSH OVC015
     FM231600 34015G22KT P6SM SCT035=



000
FTUS41 KPBZ 230400 AAA
TAFLBE
TAF AMD
KLBE 230401Z 2304/2324 31012KT P6SM OVC060
     FM230800 33015KT P6SM BKN025
     FM231500 34015G24KT P6SM BKN040
     FM231900 33015G24KT P6SM SKC
      AMD NOT SKED=



000
FTUS41 KPBZ 230200 AAA
TAFPIT
TAF AMD
KPIT 230207Z 2302/2406 33015G22KT P6SM SCT035 BKN050
     FM230800 33015KT P6SM BKN025
     FM231500 34015G24KT P6SM BKN040
     FM231800 33015G24KT P6SM SKC=



000
FTUS41 KPBZ 230100 AAA
TAFDUJ
TAF AMD
KDUJ 230116Z 2301/2324 31011KT P6SM SCT025 BKN035
     FM230300 31010KT P6SM VCSH BKN025
     FM231600 34015G22KT P6SM SCT035=



000
FTUS41 KPBZ 222300
TAFBVI
TAF
KBVI 222320Z 2300/2324 33015KT P6SM BKN021 BKN045
     FM230100 32012KT P6SM SCT025 BKN045
     FM230700 33015KT P6SM BKN015
     FM231500 34015G24KT P6SM BKN040
     FM231800 33015G24KT P6SM SKC
      AMD NOT SKED 2301/2311=



000
FTUS41 KPBZ 222300
TAFMGW
TAF
KMGW 222320Z 2300/2324 30011KT P6SM SCT035
     FM231000 32009KT P6SM BKN025
     FM231500 32010G18KT P6SM SCT040
     FM231900 32010G19KT P6SM SKC=



000
FTUS41 KPBZ 222300
TAFDUJ
TAF
KDUJ 222320Z 2300/2324 31011KT P6SM BKN025 BKN030
     FM231600 34015G22KT P6SM SCT035=



000
FTUS41 KPBZ 222300
TAFHLG
TAF
KHLG 222320Z 2300/2324 33015KT P6SM FEW027 FEW045
     FM230800 33015KT P6SM BKN025
     FM231500 34015G24KT P6SM SCT040
     FM231800 33015G24KT P6SM SKC=



000
FTUS41 KPBZ 222300
TAFLBE
TAF
KLBE 222320Z 2300/2324 33016KT P6SM FEW030 BKN045
      TEMPO 2300/2302 BKN030
     FM230800 33015KT P6SM BKN025
     FM231500 34015G24KT P6SM BKN040
     FM231900 33015G24KT P6SM SKC
      AMD NOT SKED 2302/2310=



000
FTUS41 KPBZ 222300
TAFAGC
TAF
KAGC 222320Z 2300/2324 33015KT P6SM FEW027 BKN040
     FM230800 33015KT P6SM BKN025
     FM231500 34015G24KT P6SM BKN040
     FM231800 33015G24KT P6SM SKC=



000
FTUS41 KPBZ 222300
TAFZZV
TAF
KZZV 222320Z 2300/2324 31015G22KT P6SM SKC
      TEMPO 2302/2306 SCT035=



000
FTUS41 KPBZ 222300
TAFPIT
TAF
KPIT 222320Z 2300/2406 33015KT P6SM FEW027 BKN045
     FM230800 33015KT P6SM BKN025
     FM231500 34015G24KT P6SM BKN040
     FM231800 33015G24KT P6SM SKC=



000
FTUS41 KPBZ 222000 AAC
TAFPIT
TAF AMD
KPIT 222056Z 2221/2324 32012G22KT P6SM SCT035 BKN060
     FM230200 33007KT P6SM BKN025
     FM231500 34010G18KT P6SM BKN040=



000
FTUS41 KPBZ 221900 AAA
TAFHLG
TAF AMD
KHLG 221940Z 2220/2318 30012G19KT P6SM SCT045 SCT060 BKN100
     FM230200 33007KT P6SM BKN025
     FM231500 34010G18KT P6SM BKN040=



000
FTUS41 KPBZ 221900 AAA
TAFLBE
TAF AMD
KLBE 221924Z 2219/2318 24011G20KT P6SM SCT008 BKN025
      TEMPO 2219/2221 3SM -TSRA BKN030CB
     FM222100 30012G22KT P6SM BKN035
     FM230200 33007KT P6SM BKN025
     FM231500 34010G18KT P6SM BKN040=



000
FTUS41 KPBZ 221900 AAA
TAFMGW
TAF AMD
KMGW 221922Z 2219/2318 22008KT P6SM -SHRA SCT020 SCT090
     FM222000 25008G16KT P6SM VCTS SCT008 BKN030CB
      TEMPO 2220/2221 6SM -SHRA
     FM222300 30012G22KT P6SM BKN035
     FM230300 33007KT P6SM BKN025
     FM231500 34010G18KT P6SM BKN040=



000
FTUS41 KPBZ 221900 AAA
TAFDUJ
TAF AMD
KDUJ 221920Z 2219/2318 25007KT P6SM FEW008 SCT035 BKN080
     FM222000 32012G22KT P6SM OVC012
     FM230300 33007KT P6SM BKN025
     FM231600 34006KT P6SM BKN035=



000
FTUS41 KPBZ 221900 AAB
TAFAGC
TAF AMD
KAGC 221917Z 2219/2318 26010G16KT P6SM OVC040
      TEMPO 2219/2220 27010G22KT 2SM -TSRA BKN030CB
     FM222000 30012G20KT P6SM BKN035
     FM230200 33007KT P6SM BKN025
     FM231500 34010G18KT P6SM BKN040=



000
FTUS41 KPBZ 221900 AAB
TAFPIT
TAF AMD
KPIT 221917Z 2219/2324 24012G26KT P6SM FEW022 BKN035 OVC050
      TEMPO 2219/2220 6SM -TSRA BKN030CB
     FM222100 30012G22KT P6SM BKN035
     FM230200 33007KT P6SM BKN025
     FM231500 34010G18KT P6SM BKN040=



000
FTUS41 KPBZ 221800 AAA
TAFBVI
TAF AMD
KBVI 221833Z 2219/2318 31008G16KT P6SM BKN008
     FM222100 30012G20KT P6SM BKN015
     FM230200 33007KT P6SM BKN025
     FM231500 34010G18KT P6SM BKN040=



000
FTUS41 KPBZ 221800 AAA
TAFAGC
TAF AMD
KAGC 221832Z 2219/2318 31008G16KT P6SM SCT008 BKN015
      TEMPO 2219/2220 27008KT 2SM -TSRA BKN008CB
     FM222100 30012G20KT P6SM BKN035
     FM230200 33007KT P6SM BKN025
     FM231500 34010G18KT P6SM BKN040=



000
FTUS41 KPBZ 221800 AAA
TAFPIT
TAF AMD
KPIT 221832Z 2219/2324 31008G16KT P6SM SCT008 BKN015
      TEMPO 2218/2220 2SM -TSRA BKN008CB
     FM222100 30012G22KT P6SM BKN035
     FM230200 33007KT P6SM BKN025
     FM231500 34010G18KT P6SM BKN040=



000
FTUS41 KPBZ 221700
TAFBVI
TAF
KBVI 221722Z 2218/2318 31008G16KT P6SM SCT008 BKN015
      TEMPO 2218/2219 3SM -TSRA BKN008CB
     FM222100 30012G20KT P6SM BKN035
     FM230200 33007KT P6SM BKN025
     FM231500 34010G18KT P6SM BKN040=



000
FTUS41 KPBZ 221700
TAFAGC
TAF
KAGC 221722Z 2218/2318 31008G16KT P6SM SCT008 BKN015
      TEMPO 2218/2220 27008KT 3SM -SHRA BKN008
     FM222100 30012G20KT P6SM BKN035
     FM230200 33007KT P6SM BKN025
     FM231500 34010G18KT P6SM BKN040=



000
FTUS41 KPBZ 221700
TAFMGW
TAF
KMGW 221722Z 2218/2318 25008KT P6SM -SHRA SCT015 BKN025
     FM222000 30008G16KT P6SM SCT008 BKN015
      TEMPO 2220/2222 3SM -SHRA BKN008
     FM222300 30012G22KT P6SM BKN035
     FM230300 33007KT P6SM BKN025
     FM231500 34010G18KT P6SM BKN040=



000
FTUS41 KPBZ 221700
TAFZZV
TAF
KZZV 221722Z 2218/2318 28010G20KT P6SM SCT025 BKN035
     FM221900 32012G22KT P6SM SCT040
     FM230900 34006KT P6SM SKC=



000
FTUS41 KPBZ 221700
TAFDUJ
TAF
KDUJ 221722Z 2218/2318 31009G18KT P6SM OVC006
      TEMPO 2218/2219 2SM -SHRA
     FM222000 32012G22KT P6SM OVC012
     FM230300 33007KT P6SM BKN025
     FM231600 34006KT P6SM BKN035=



000
FTUS41 KPBZ 221700
TAFLBE
TAF
KLBE 221722Z 2218/2318 25008KT P6SM -SHRA SCT015 BKN025
     FM221900 31008G16KT P6SM SCT008 BKN015
      TEMPO 2219/2221 3SM -SHRA BKN008
     FM222100 30012G22KT P6SM BKN035
     FM230200 33007KT P6SM BKN025
     FM231500 34010G18KT P6SM BKN040=



000
FTUS41 KPBZ 221700
TAFPIT
TAF
KPIT 221722Z 2218/2324 31008G16KT P6SM SCT008 BKN015
      TEMPO 2218/2220 3SM -SHRA BKN008
     FM222100 30012G22KT P6SM BKN035
     FM230200 33007KT P6SM BKN025
     FM231500 34010G18KT P6SM BKN040=



000
FTUS41 KPBZ 221700
TAFHLG
TAF
KHLG 221722Z 2218/2318 28008KT P6SM -SHRA SCT015 BKN025
     FM221900 31008G16KT P6SM SCT008 BKN015
      TEMPO 2219/2221 3SM -SHRA BKN008
     FM222100 30012G22KT P6SM BKN035
     FM230200 33007KT P6SM BKN025
     FM231500 34010G18KT P6SM BKN040=



000
FTUS41 KPBZ 221600 AAC
TAFAGC
TAF AMD
KAGC 221607Z 2216/2312 28008G16KT P6SM BKN012
      TEMPO 2216/2219 3SM -SHRA
     FM221900 30012G20KT P6SM BKN025
     FM230200 33007KT P6SM BKN025=



000
FTUS41 KPBZ 221600 AAC
TAFPIT
TAF AMD
KPIT 221606Z 2216/2318 28008G16KT P6SM BKN012
      TEMPO 2216/2219 3SM -SHRA
     FM221900 30012G20KT P6SM BKN025
     FM230200 33007KT P6SM BKN025
     FM231500 34010G18KT P6SM BKN040=



000
FTUS41 KPBZ 221600 AAB
TAFZZV
TAF AMD
KZZV 221604Z 2216/2312 28010G20KT P6SM BKN025
     FM221900 32012G22KT P6SM SCT035
     FM230900 34006KT P6SM SKC=



000
FTUS41 KPBZ 221600 AAA
TAFLBE
TAF AMD
KLBE 221603Z 2216/2312 23008G16KT P6SM -SHRA BKN015
      TEMPO 2216/2217 2SM -SHRA BKN008
     FM222000 30010G20KT P6SM BKN025
     FM230200 33010KT P6SM BKN035
     FM230800 33006KT P6SM BKN025=



000
FTUS41 KPBZ 221500 AAC
TAFBVI
TAF AMD
KBVI 221530Z 2216/2312 26007KT P6SM -SHRA OVC006
     FM221700 28008G16KT P6SM OVC012
     FM222000 30012G22KT P6SM BKN025
     FM222200 32008KT P6SM BKN035
     FM230300 33006KT P6SM BKN025=



000
FTUS41 KPBZ 221500 AAB
TAFMGW
TAF AMD
KMGW 221520Z 2215/2312 25007KT P6SM SCT007 OVC015
      TEMPO 2215/2216 2SM -SHRA BKN007
     FM222100 29010G18KT P6SM BKN025
     FM230100 32006KT P6SM BKN025=



000
FTUS41 KPBZ 221400 AAC
TAFDUJ
TAF AMD
KDUJ 221456Z 2215/2312 24010KT 4SM -SHRA BR OVC007
     FM221800 29012G22KT P6SM OVC012
     FM222100 32010KT P6SM BKN025
     FM230500 34006KT P6SM SCT015=



000
FTUS41 KPBZ 221400 AAB
TAFAGC
TAF AMD
KAGC 221454Z 2215/2312 25008G16KT P6SM SCT007 OVC015
      TEMPO 2215/2217 -SHRA BKN007
     FM221900 30010G20KT P6SM BKN025
     FM222200 32010KT P6SM BKN035
     FM230200 33006KT P6SM BKN025=



000
FTUS41 KPBZ 221400 AAB
TAFPIT
TAF AMD
KPIT 221453Z 2215/2318 25008G16KT P6SM SCT007 OVC015
      TEMPO 2215/2217 -SHRA BKN007
     FM221900 30012G20KT P6SM BKN020
     FM230200 33007KT P6SM BKN025
     FM231400 33010G18KT P6SM BKN040=



000
FTUS41 KPBZ 221400 AAB
TAFDUJ
TAF AMD
KDUJ 221430Z 2215/2312 23008KT 2SM -SHRA BKN015
     FM221500 26010G18KT P6SM -SHRA OVC015
     FM222000 30012G22KT P6SM BKN025
     FM230300 33007KT P6SM OVC015=



000
FTUS41 KPBZ 221400 AAB
TAFBVI
TAF AMD
KBVI 221405Z 2214/2312 24007KT P6SM -SHRA OVC006
     FM221530 26008G16KT P6SM OVC012
     FM221800 30012G22KT P6SM BKN025
     FM222200 32008KT P6SM BKN035
     FM230300 33006KT P6SM BKN025=



000
FTUS41 KPBZ 221300 AAA
TAFMGW
TAF AMD
KMGW 221348Z 2214/2312 21005KT 4SM -SHRA BKN025
     FM221500 25010KT P6SM BKN015
     FM222100 29010G18KT P6SM BKN025
     FM230100 32006KT P6SM BKN025=



000
FTUS41 KPBZ 221300 AAA
TAFDUJ
TAF AMD
KDUJ 221332Z 2214/2312 22006KT 6SM -RA BKN025
     FM221500 26010G18KT P6SM OVC015
     FM221900 30012G22KT P6SM BKN025
     FM230300 33007KT P6SM OVC010=



000
FTUS41 KPBZ 221300 AAA
TAFAGC
TAF AMD
KAGC 221330Z 2214/2312 24006KT 6SM -SHRA BKN025
     FM221500 24008G16KT P6SM OVC015
     FM221900 30010G20KT P6SM BKN025
     FM222200 32010KT P6SM BKN035
     FM230200 33006KT P6SM BKN025=



000
FTUS41 KPBZ 221300 AAA
TAFZZV
TAF AMD
KZZV 221314Z 2213/2312 26008KT P6SM SCT008 OVC015
     FM221800 33012G22KT P6SM BKN025
     FM222100 32010KT P6SM SCT035
     FM230900 34006KT P6SM SKC=



000
FTUS41 KPBZ 221300 AAA
TAFBVI
TAF AMD
KBVI 221313Z 2213/2312 26006KT P6SM BKN014
      TEMPO 2213/2214 5SM -SHRA
     FM222000 30012G20KT P6SM BKN020
     FM222100 33010G18KT P6SM BKN035
     FM230700 33007KT P6SM BKN025=



000
FTUS41 KPBZ 221300 AAB
TAFHLG
TAF AMD
KHLG 221311Z 2213/2312 23008KT P6SM OVC015
      TEMPO 2213/2214 4SM -SHRA
     FM221800 33012G20KT P6SM BKN020
     FM222100 33010G18KT P6SM BKN035
     FM230700 33007KT P6SM BKN025=



000
FTUS41 KPBZ 221200 AAA
TAFPIT
TAF AMD
KPIT 221245Z 2213/2318 22006KT 6SM -RA BKN025
     FM221400 24008G16KT P6SM -RA OVC015
     FM221900 30012G22KT P6SM BKN035
     FM230200 33008KT P6SM BKN025
     FM231400 33010G18KT P6SM BKN040=



000
FTUS41 KPBZ 221100 AAA
TAFHLG
TAF AMD
KHLG 221156Z 2212/2312 23008KT 5SM -SHRA BKN025
     FM221400 25008G16KT P6SM -SHRA OVC015
     FM221800 33012G24KT P6SM BKN020
     FM222100 33010KT P6SM BKN040
     FM230700 33012G25KT P6SM OVC015=



000
FTUS41 KPBZ 221100
TAFHLG
TAF
KHLG 221131Z 2212/2312 25006KT 6SM -RA OVC040
     FM221400 21010G20KT 6SM -RA BKN020
     FM221800 33012G24KT P6SM BKN035
     FM230200 33010KT P6SM BKN040
     FM230700 33012G25KT P6SM OVC015=



000
FTUS41 KPBZ 221100
TAFPIT
TAF
KPIT 221131Z 2212/2318 25006KT 6SM -RA OVC040
     FM221400 21010G18KT 6SM -RA BKN020
     FM221900 33012G22KT P6SM BKN035
     FM230200 33010KT P6SM BKN040
     FM230700 33012G22KT P6SM OVC015
     FM231500 33012G18KT P6SM BKN015=



000
FTUS41 KPBZ 221100
TAFBVI
TAF
KBVI 221131Z 2212/2312 25006KT P6SM OVC040
     FM221400 21010G18KT 6SM -RA BKN015
     FM221900 33012G22KT P6SM BKN035
     FM230200 33010KT P6SM BKN040
     FM230700 33012G22KT P6SM OVC015=



000
FTUS41 KPBZ 221100
TAFZZV
TAF
KZZV 221131Z 2212/2312 24008KT 6SM -RA SCT015 BKN025
      TEMPO 2212/2214 4SM -SHRA BKN015
     FM221400 28008G16KT P6SM -SHRA OVC012
     FM221600 33012G22KT P6SM BKN015
     FM221800 32010KT P6SM SCT050
     FM230900 34008KT P6SM SKC=



000
FTUS41 KPBZ 221100
TAFMGW
TAF
KMGW 221131Z 2212/2312 25005KT P6SM OVC040
     FM221500 21010KT 6SM -RA BKN015
     FM222100 32010G18KT P6SM BKN025
     FM230100 33006KT P6SM BKN040
     FM231000 33012G25KT P6SM BKN015=



000
FTUS41 KPBZ 221100
TAFAGC
TAF
KAGC 221131Z 2212/2312 25006KT 6SM -RA OVC040
     FM221400 21010G18KT 6SM -RA BKN020
     FM221900 33012G22KT P6SM BKN035
     FM230200 33010KT P6SM BKN040
     FM230700 33012G22KT P6SM OVC015=



000
FTUS41 KPBZ 221100
TAFDUJ
TAF
KDUJ 221131Z 2212/2312 25006KT 6SM -RA OVC040
     FM221500 21010G18KT 6SM -RA BKN015
     FM221900 33012G24KT P6SM BKN015
     FM230300 33007KT P6SM OVC010=



000
FTUS41 KPBZ 221100
TAFLBE
TAF
KLBE 221131Z 2212/2312 25006KT 6SM -RA OVC040
     FM221500 21010G20KT 6SM -RA BKN010
     FM222000 33012G24KT P6SM BKN030
     FM230200 33010KT P6SM BKN040
     FM230800 33012G25KT P6SM OVC015=



000
FTUS41 KPBZ 220500
TAFPIT
TAF
KPIT 220520Z 2206/2312 25006KT P6SM OVC080
     FM221300 21010G18KT 6SM -RA BKN020
     FM222000 33012G25KT P6SM BKN035
     FM230200 33010KT P6SM BKN040
     FM230700 33012G25KT P6SM OVC015=



000
FTUS41 KPBZ 220500
TAFAGC
TAF
KAGC 220520Z 2206/2306 25006KT P6SM OVC080
     FM221300 21010G18KT 6SM -RA BKN020
     FM222000 33012G25KT P6SM BKN035
     FM230200 33010KT P6SM BKN040=



000
FTUS41 KPBZ 220500
TAFLBE
TAF
KLBE 220520Z 2206/2306 25006KT P6SM OVC080
     FM221400 21010G20KT 6SM -RA BKN010
     FM222100 33015G30KT P6SM BKN030
     FM230200 33010KT P6SM BKN040
      AMD NOT SKED=



000
FTUS41 KPBZ 220500
TAFDUJ
TAF
KDUJ 220520Z 2206/2306 25006KT P6SM OVC080
     FM221400 21010G18KT 6SM -RA BKN015
     FM221900 33015G30KT P6SM BKN015
     FM230300 33010KT P6SM OVC010=



000
FTUS41 KPBZ 220500
TAFZZV
TAF
KZZV 220520Z 2206/2306 24008KT P6SM OVC090
     FM221000 23012G20KT 6SM -RA BKN025
     FM221700 33015G25KT P6SM BKN040
     FM230000 32010KT P6SM SKC=



000
FTUS41 KPBZ 220500
TAFBVI
TAF
KBVI 220520Z 2206/2306 25006KT P6SM OVC080
     FM221300 21010G18KT 6SM -RA BKN020
     FM222000 33012G25KT P6SM BKN035
     FM230200 33010KT P6SM BKN040
      AMD NOT SKED=



000
FTUS41 KPBZ 220500
TAFMGW
TAF
KMGW 220520Z 2206/2306 20006KT P6SM BKN250
     FM220800 23005KT P6SM OVC080
     FM221300 21010KT 6SM -RA BKN015
     FM222000 32010G18KT P6SM BKN025
     FM230100 33006KT P6SM BKN040=



000
FTUS41 KPBZ 220500
TAFHLG
TAF
KHLG 220520Z 2206/2306 25006KT P6SM OVC080
     FM221300 21010G20KT 6SM -RA BKN020
     FM222000 33015G30KT P6SM BKN035
     FM230200 33010KT P6SM BKN040=



000
FTUS41 KPBZ 220200 AAA
TAFPIT
TAF AMD
KPIT 220235Z 2203/2306 23006KT P6SM BKN150 OVC200
     FM221100 22010KT 6SM -SHRA BKN035
     FM221300 25010KT 5SM -SHRA BKN015
     FM221700 30012G20KT P6SM BKN030
     FM222100 30012KT P6SM BKN040=



000
FTUS41 KPBZ 212300
TAFZZV
TAF
KZZV 212320Z 2200/2224 26011KT P6SM BKN150
     FM221000 24010KT P6SM -SHRA BKN040
     FM221100 24009KT 5SM -SHRA OVC020
     FM221600 29012G20KT P6SM BKN030
     FM221800 21015G22KT P6SM SCT050=



000
FTUS41 KPBZ 212300
TAFDUJ
TAF
KDUJ 212320Z 2200/2224 22009KT P6SM BKN150
     FM221300 22010KT 6SM -SHRA BKN050
     FM221400 24012G18KT 5SM -SHRA BKN015
     FM221900 31012G20KT P6SM BKN025=



000
FTUS41 KPBZ 212300
TAFBVI
TAF
KBVI 212320Z 2200/2224 22010KT P6SM BKN150
     FM221100 22010KT 6SM -SHRA BKN035
     FM221300 25010KT 5SM -SHRA BKN015
     FM221700 30012G20KT P6SM BKN030
     FM222100 30012KT P6SM BKN040
      AMD NOT SKED 2201/2211=



000
FTUS41 KPBZ 212300
TAFPIT
TAF
KPIT 212320Z 2200/2306 22010KT P6SM BKN150
     FM221100 22010KT 6SM -SHRA BKN035
     FM221300 25010KT 5SM -SHRA BKN015
     FM221700 30012G20KT P6SM BKN030
     FM222100 30012KT P6SM BKN040=



000
FTUS41 KPBZ 212300
TAFHLG
TAF
KHLG 212320Z 2200/2224 24010KT P6SM BKN150
     FM221000 22008KT 6SM -SHRA BKN035
     FM221200 25010KT 5SM -SHRA BKN015
     FM221600 30012G20KT P6SM BKN030
     FM222000 30012KT P6SM BKN040=



000
FTUS41 KPBZ 212300
TAFLBE
TAF
KLBE 212320Z 2200/2224 22010KT P6SM BKN150
     FM221300 22010KT 6SM -SHRA BKN035
     FM221400 25010KT 5SM -SHRA BKN015
     FM221900 30012G20KT P6SM BKN030
     FM222300 30012KT P6SM BKN040
      AMD NOT SKED 2202/2210=



000
FTUS41 KPBZ 212300
TAFAGC
TAF
KAGC 212320Z 2200/2224 22010KT P6SM BKN150
     FM221100 22010KT 6SM -SHRA BKN035
     FM221300 25010KT 5SM -SHRA BKN015
     FM221700 30012G20KT P6SM BKN030
     FM222100 30012KT P6SM BKN040=



000
FTUS41 KPBZ 212300
TAFMGW
TAF
KMGW 212320Z 2200/2224 19007KT P6SM BKN150
     FM221300 22010KT 6SM -SHRA BKN050
     FM221400 24012G20KT 5SM -SHRA BKN025
     FM221900 31010G20KT P6SM BKN035=



000
FTUS41 KPBZ 212000 AAA
TAFPIT
TAF AMD
KPIT 212055Z 2121/2224 24010KT P6SM FEW150 OVC200
     FM220900 22010KT 6SM -SHRA BKN050
     FM221400 24012G18KT 5SM -SHRA BKN025
     FM221700 29012G20KT P6SM BKN030
     FM222100 30012KT P6SM BKN040=



000
FTUS41 KPBZ 211700
TAFLBE
TAF
KLBE 211720Z 2118/2218 18005KT P6SM BKN200
     FM221100 22010KT 6SM -SHRA BKN050
     FM221500 24012G20KT 5SM -SHRA BKN025=



000
FTUS41 KPBZ 211700
TAFAGC
TAF
KAGC 211720Z 2118/2218 20005KT P6SM BKN200
     FM221000 22010KT 6SM -SHRA BKN050
     FM221400 24012G18KT 5SM -SHRA BKN025
     FM221700 29012G20KT P6SM BKN030=



000
FTUS41 KPBZ 211700
TAFDUJ
TAF
KDUJ 211720Z 2118/2218 21007KT P6SM BKN200
     FM221100 22010KT 6SM -SHRA BKN050
     FM221500 24012G20KT 5SM -SHRA BKN025=



000
FTUS41 KPBZ 211700
TAFZZV
TAF
KZZV 211720Z 2118/2218 20007KT P6SM BKN200
     FM220700 22010KT 6SM -SHRA BKN050
     FM221000 24012G18KT 5SM -SHRA BKN025
     FM221500 29012G20KT P6SM BKN030=



000
FTUS41 KPBZ 211700
TAFPIT
TAF
KPIT 211720Z 2118/2224 20006KT P6SM BKN200
     FM220900 22010KT 6SM -SHRA BKN050
     FM221400 24012G18KT 5SM -SHRA BKN025
     FM221700 29012G20KT P6SM BKN030
     FM222100 30012KT P6SM BKN040=



000
FTUS41 KPBZ 211700
TAFHLG
TAF
KHLG 211720Z 2118/2218 20007KT P6SM BKN200
     FM220900 22010KT 6SM -SHRA BKN050
     FM221300 24012G18KT 5SM -SHRA BKN025
     FM221700 29014G20KT P6SM BKN035=



000
FTUS41 KPBZ 211700
TAFMGW
TAF
KMGW 211720Z 2118/2218 19005KT P6SM BKN200
     FM221100 22010KT 6SM -SHRA BKN050
     FM221400 24012G20KT 5SM -SHRA BKN025=



000
FTUS41 KPBZ 211700
TAFBVI
TAF
KBVI 211720Z 2118/2218 20007KT P6SM BKN200
     FM220900 22010KT 6SM -SHRA BKN050
     FM221300 24012G18KT 5SM -SHRA BKN025
     FM221700 29012G20KT P6SM BKN030=



000
FTUS41 KPBZ 211400 AAA
TAFPIT
TAF AMD
KPIT 211456Z 2115/2218 18005KT P6SM BKN200
     FM221000 24010KT 6SM -RA BKN050
     FM221400 22012G18KT 5SM -RA BKN025=



000
FTUS41 KPBZ 211100
TAFPIT
TAF
KPIT 211120Z 2112/2218 17006KT P6SM SCT250
     FM220300 VRB05KT P6SM OVC120
     FM221000 24010KT 6SM -RA BKN050
     FM221400 22012G18KT 5SM -RA BKN025=



000
FTUS41 KPBZ 211100
TAFLBE
TAF
KLBE 211120Z 2112/2212 17006KT P6SM SCT250
     FM220400 VRB05KT P6SM OVC120=



000
FTUS41 KPBZ 211100
TAFBVI
TAF
KBVI 211120Z 2112/2212 17006KT P6SM SCT250
     FM220300 VRB05KT P6SM OVC120
     FM221000 24010KT 6SM -RA BKN035=



000
FTUS41 KPBZ 211100
TAFMGW
TAF
KMGW 211120Z 2112/2212 17006KT P6SM SCT250
     FM220300 VRB05KT P6SM BKN120=



000
FTUS41 KPBZ 211100
TAFHLG
TAF
KHLG 211120Z 2112/2212 17006KT P6SM SCT250
     FM220300 VRB05KT P6SM OVC120
     FM221000 24010KT 6SM -RA BKN050=



000
FTUS41 KPBZ 211100
TAFDUJ
TAF
KDUJ 211120Z 2112/2212 17006KT P6SM SCT250
     FM220400 VRB05KT P6SM OVC120=



000
FTUS41 KPBZ 211100
TAFZZV
TAF
KZZV 211120Z 2112/2212 17006KT P6SM SCT250
     FM220000 VRB05KT P6SM OVC120
     FM220800 24010KT 6SM -RA BKN040=



000
FTUS41 KPBZ 211100
TAFAGC
TAF
KAGC 211120Z 2112/2212 17006KT P6SM SCT250
     FM220300 VRB05KT P6SM OVC120
     FM221000 24010KT 6SM -RA BKN050=



000
FTUS41 KPBZ 210800 AAA
TAFPIT
TAF AMD
KPIT 210855Z 2109/2212 17006KT P6SM BKN250
     FM220300 VRB05KT P6SM OVC120
     FM221000 24010KT P6SM BKN050=



000
FTUS41 KPBZ 210500
TAFAGC
TAF
KAGC 210520Z 2106/2206 17006KT P6SM BKN250
     FM220300 VRB05KT P6SM OVC120=



000
FTUS41 KPBZ 210500
TAFZZV
TAF
KZZV 210520Z 2106/2206 17006KT P6SM BKN250
     FM220000 VRB05KT P6SM OVC120=



000
FTUS41 KPBZ 210500
TAFBVI
TAF
KBVI 210520Z 2106/2206 17006KT P6SM BKN250
     FM220300 VRB05KT P6SM OVC120
      AMD NOT SKED=



000
FTUS41 KPBZ 210500
TAFHLG
TAF
KHLG 210520Z 2106/2206 17006KT P6SM BKN250
     FM220300 VRB05KT P6SM OVC120=



000
FTUS41 KPBZ 210500
TAFDUJ
TAF
KDUJ 210520Z 2106/2206 17006KT P6SM BKN250
     FM220400 VRB05KT P6SM OVC120=



000
FTUS41 KPBZ 210500
TAFPIT
TAF
KPIT 210520Z 2106/2212 17006KT P6SM BKN250
     FM220300 VRB05KT P6SM OVC120
     FM221000 24010KT P6SM BKN050=



000
FTUS41 KPBZ 210500
TAFMGW
TAF
KMGW 210520Z 2106/2206 17006KT P6SM BKN250
     FM220300 VRB05KT P6SM BKN120=



000
FTUS41 KPBZ 210500
TAFLBE
TAF
KLBE 210520Z 2106/2206 17006KT P6SM BKN250
     FM220400 VRB05KT P6SM OVC120
      AMD NOT SKED=



000
FTUS41 KPBZ 210200 AAA
TAFPIT
TAF AMD
KPIT 210238Z 2103/2206 12007KT P6SM SCT250
     FM211500 23008KT P6SM SCT250=



000
FTUS41 KPBZ 202300
TAFMGW
TAF
KMGW 202320Z 2100/2124 11005KT P6SM SCT250=



000
FTUS41 KPBZ 202300
TAFHLG
TAF
KHLG 202320Z 2100/2124 12006KT P6SM SCT250
     FM211500 23007KT P6SM SCT250=



000
FTUS41 KPBZ 202300
TAFAGC
TAF
KAGC 202320Z 2100/2124 12006KT P6SM SCT250
     FM211500 23008KT P6SM SCT250=



000
FTUS41 KPBZ 202300
TAFPIT
TAF
KPIT 202320Z 2100/2206 12006KT P6SM SCT250
     FM211500 23008KT P6SM SCT250=



000
FTUS41 KPBZ 202300
TAFBVI
TAF
KBVI 202320Z 2100/2124 12006KT P6SM SCT250
     FM211500 23008KT P6SM SCT250
      AMD NOT SKED=



000
FTUS41 KPBZ 202300
TAFLBE
TAF
KLBE 202320Z 2100/2124 14008KT P6SM SCT250
     FM211500 23006KT P6SM SCT250
      AMD NOT SKED 2102/2110=



000
FTUS41 KPBZ 202300
TAFZZV
TAF
KZZV 202320Z 2100/2124 17005KT P6SM SCT250
     FM211500 23007KT P6SM SCT150=



000
FTUS41 KPBZ 202300
TAFDUJ
TAF
KDUJ 202320Z 2100/2124 16006KT P6SM SCT250
     FM211500 23008KT P6SM SCT250=



000
FTUS41 KPBZ 202000 AAA
TAFPIT
TAF AMD
KPIT 202058Z 2021/2124 15008KT P6SM SCT250=



000
FTUS41 KPBZ 201700
TAFZZV
TAF
KZZV 201720Z 2018/2118 17005KT P6SM SCT250=



000
FTUS41 KPBZ 201700
TAFDUJ
TAF
KDUJ 201720Z 2018/2118 16009KT P6SM SCT250=



000
FTUS41 KPBZ 201700
TAFHLG
TAF
KHLG 201720Z 2018/2118 15010KT P6SM SCT250=



000
FTUS41 KPBZ 201700
TAFMGW
TAF
KMGW 201720Z 2018/2118 15008KT P6SM SCT250=



000
FTUS41 KPBZ 201700
TAFLBE
TAF
KLBE 201720Z 2018/2118 13010KT P6SM SCT250
      AMD NOT SKED 2101/2111=



000
FTUS41 KPBZ 201700
TAFAGC
TAF
KAGC 201720Z 2018/2118 14008KT P6SM SCT250=



000
FTUS41 KPBZ 201700
TAFBVI
TAF
KBVI 201720Z 2018/2118 15008KT P6SM SCT250
      AMD NOT SKED 2018/2100=



000
FTUS41 KPBZ 201700
TAFPIT
TAF
KPIT 201720Z 2018/2124 15008KT P6SM SCT250=



000
FTUS41 KPBZ 201400 AAA
TAFPIT
TAF AMD
KPIT 201427Z 2014/2118 15008KT P6SM SCT250=



000
FTUS41 KPBZ 201100
TAFZZV
TAF
KZZV 201133Z 2012/2112 00000KT P6SM SCT250
     FM201500 14004KT P6SM FEW250=



000
FTUS41 KPBZ 201100
TAFAGC
TAF
KAGC 201133Z 2012/2112 VRB03KT P6SM SCT250
     FM201600 14007KT P6SM FEW250=



000
FTUS41 KPBZ 201100
TAFHLG
TAF
KHLG 201133Z 2012/2112 08003KT P6SM SCT250
     FM201600 13007KT P6SM FEW250=



000
FTUS41 KPBZ 201100
TAFPIT
TAF
KPIT 201133Z 2012/2118 08003KT P6SM SCT250
     FM201600 14007KT P6SM FEW250=



000
FTUS41 KPBZ 201100
TAFBVI
TAF
KBVI 201133Z 2012/2112 08003KT P6SM SCT250
     FM201600 14007KT P6SM FEW250=



000
FTUS41 KPBZ 201100
TAFDUJ
TAF
KDUJ 201133Z 2012/2112 09005KT P6SM SCT250
     FM201500 15007KT P6SM FEW250=



000
FTUS41 KPBZ 201100
TAFLBE
TAF
KLBE 201133Z 2012/2112 08003KT P6SM SCT250
     FM201600 14007KT P6SM FEW250=



000
FTUS41 KPBZ 201100
TAFMGW
TAF
KMGW 201133Z 2012/2112 00000KT P6SM SCT250
     FM201500 11005KT P6SM FEW250=



000
FTUS41 KPBZ 200800 AAA
TAFPIT
TAF AMD
KPIT 200856Z 2009/2112 08003KT P6SM SCT250
     FM201500 13007KT P6SM SKC=



    US Dept of Commerce
    National Oceanic and Atmospheric Administration
    National Weather Service
    1325 East West Highway
    Silver Spring, MD 20910
    Page Author: NWS Internet Services Team
Disclaimer
Information Quality
Credits
Glossary
Privacy Policy
Freedom of Information Act (FOIA)
About Us
Career Opportunities